Time;durP1;ratioP1;P1;durP2;ratioP2;P2;SDS_P1;SDS_P2;PMS_P1;PMS_P2;Temp;Humidity;BMP_temperature;BMP_pressure;BME280_temperature;BME280_humidity;BME280_pressure;Samples;Min_cycle;Max_cycle;Signal;HPM_P1;HPM_P2
2022/01/24 00:01:05;;;;;;;20.97;12.03;;;;;;;-2.44;100.00;96088.91;5083973;28;20188;-73
2022/01/24 00:03:57;;;;;;;17.47;12.37;;;;;;;-2.00;100.00;96090.34;5066034;28;20200;-73
2022/01/24 00:06:44;;;;;;;21.43;12.83;;;;;;;-2.07;100.00;96100.88;5070580;28;20201;-73
2022/01/24 00:09:29;;;;;;;18.70;12.17;;;;;;;-2.34;100.00;96101.00;5073007;28;20232;-73
2022/01/24 00:18:30;;;;;;;13.67;9.33;;;;;;;-2.44;100.00;96086.22;5076792;28;20308;-73
2022/01/24 00:27:33;;;;;;;14.40;9.63;;;;;;;-2.57;100.00;96096.25;5075360;28;20197;-73
2022/01/24 00:30:19;;;;;;;12.20;8.83;;;;;;;-2.59;100.00;96095.81;5071919;28;20217;-72
2022/01/24 00:33:05;;;;;;;13.47;9.03;;;;;;;-2.38;100.00;96094.78;5049756;28;20214;-73
2022/01/24 00:35:50;;;;;;;15.93;10.03;;;;;;;-2.53;100.00;96107.78;5053744;28;20202;-73
2022/01/24 00:38:36;;;;;;;12.87;8.90;;;;;;;-2.46;100.00;96096.50;5064714;28;20274;-73
2022/01/24 00:41:23;;;;;;;10.83;8.17;;;;;;;-2.57;100.00;96090.13;5090022;28;20264;-73
2022/01/24 00:44:42;;;;;;;12.27;8.30;;;;;;;-2.55;100.00;96094.00;5074878;28;20185;-73
2022/01/24 00:47:26;;;;;;;22.57;12.80;;;;;;;-2.47;100.00;96082.38;5083457;28;20185;-73
2022/01/24 00:53:39;;;;;;;23.73;13.57;;;;;;;-2.66;100.00;96086.81;5074021;28;20288;-73
2022/01/24 00:56:25;;;;;;;14.23;9.43;;;;;;;-2.58;100.00;96070.59;5072188;28;20197;-73
2022/01/24 00:59:10;;;;;;;13.97;9.13;;;;;;;-2.72;100.00;96086.31;5074036;28;20568;-73
2022/01/24 01:01:57;;;;;;;12.20;8.83;;;;;;;-2.70;100.00;96078.72;5062189;28;20248;-73
2022/01/24 01:05:03;;;;;;;11.03;8.30;;;;;;;-2.82;100.00;96083.38;5064714;28;20193;-73
2022/01/24 01:20:23;;;;;;;11.70;8.53;;;;;;;-2.53;100.00;96058.91;5082010;28;20383;-73
2022/01/24 01:23:08;;;;;;;11.87;8.53;;;;;;;-2.40;100.00;96043.53;5079169;28;20197;-73
2022/01/24 01:25:56;;;;;;;33.43;20.97;;;;;;;-2.50;100.00;96055.53;5049954;28;20190;-73
2022/01/24 01:28:45;;;;;;;36.63;21.43;;;;;;;-2.58;100.00;96057.25;5073557;28;20250;-73
2022/01/24 01:55:44;;;;;;;11.77;8.50;;;;;;;-2.68;100.00;96040.97;5058525;28;20198;-73
2022/01/24 01:58:30;;;;;;;12.73;8.13;;;;;;;-2.80;100.00;96041.03;5050178;28;20226;-73
2022/01/24 02:01:16;;;;;;;11.47;8.73;;;;;;;-2.94;100.00;96036.09;5072296;28;20200;-73
2022/01/24 02:04:05;;;;;;;13.27;8.27;;;;;;;-3.00;100.00;96031.34;5060887;28;20629;-73
2022/01/24 02:06:51;;;;;;;11.33;8.47;;;;;;;-2.70;100.00;96038.59;5066154;28;20208;-73
2022/01/24 02:09:40;;;;;;;12.83;8.20;;;;;;;-2.72;100.00;96043.53;5056449;28;20217;-73
2022/01/24 02:12:28;;;;;;;10.83;8.43;;;;;;;-3.04;100.00;96033.94;5037718;28;20225;-73
2022/01/24 02:15:19;;;;;;;11.07;8.30;;;;;;;-3.10;100.00;96037.19;5065116;28;20197;-73
2022/01/24 02:21:42;;;;;;;11.97;8.23;;;;;;;-3.01;100.00;96038.59;5079811;28;20694;-73
2022/01/24 02:24:33;;;;;;;12.97;9.57;;;;;;;-3.07;100.00;96041.88;5034905;28;20220;-73
2022/01/24 02:27:22;;;;;;;13.00;8.90;;;;;;;-3.01;100.00;96037.81;5064960;28;20216;-73
2022/01/24 02:32:57;;;;;;;12.90;8.70;;;;;;;-2.65;100.00;96027.66;5058303;28;20229;-73
2022/01/24 02:35:44;;;;;;;22.80;13.00;;;;;;;-2.38;100.00;96025.22;5067937;28;20284;-73
2022/01/24 02:53:52;;;;;;;12.53;8.77;;;;;;;-2.99;100.00;95974.91;5052160;28;20459;-73
2022/01/24 02:56:38;;;;;;;12.90;9.03;;;;;;;-3.13;100.00;95969.19;5054014;28;20200;-73
2022/01/24 02:59:24;;;;;;;13.77;8.30;;;;;;;-3.19;100.00;95986.59;5079769;28;20213;-73
2022/01/24 03:02:10;;;;;;;13.33;9.30;;;;;;;-3.08;100.00;95973.50;5069397;28;20755;-73
2022/01/24 03:04:57;;;;;;;12.60;9.10;;;;;;;-3.12;100.00;95959.28;5054872;28;20685;-73
2022/01/24 03:07:43;;;;;;;12.23;8.97;;;;;;;-3.17;100.00;95960.31;5070827;28;20206;-73
2022/01/24 03:10:37;;;;;;;13.47;9.07;;;;;;;-3.20;100.00;95971.69;5043256;28;20222;-73
2022/01/24 03:16:11;;;;;;;14.83;8.80;;;;;;;-2.98;100.00;95962.28;5080240;28;20211;-73
2022/01/24 03:18:57;;;;;;;14.77;9.80;;;;;;;-3.11;100.00;95958.16;5087715;28;20219;-73
2022/01/24 03:21:44;;;;;;;14.37;9.57;;;;;;;-3.31;100.00;95957.25;5056550;28;20193;-73
2022/01/24 03:24:29;;;;;;;14.33;9.97;;;;;;;-2.94;100.00;95953.25;5061615;28;20195;-72
2022/01/24 03:27:15;;;;;;;13.53;8.93;;;;;;;-3.19;100.00;95949.19;5060257;28;20277;-73
2022/01/24 03:30:02;;;;;;;16.67;10.47;;;;;;;-3.32;100.00;95958.41;5066452;28;20581;-73
2022/01/24 03:32:49;;;;;;;14.47;8.90;;;;;;;-3.35;100.00;95951.06;5064528;28;20201;-73
2022/01/24 03:35:35;;;;;;;14.80;10.50;;;;;;;-3.04;100.00;95953.00;5061689;28;20194;-73
2022/01/24 03:38:23;;;;;;;13.10;9.43;;;;;;;-3.14;100.00;95946.25;5064378;28;20286;-73
2022/01/24 03:41:09;;;;;;;17.17;9.93;;;;;;;-3.00;100.00;95943.94;5068149;28;20198;-73
2022/01/24 03:44:03;;;;;;;16.13;10.90;;;;;;;-2.92;100.00;95939.56;5073990;28;20200;-73
2022/01/24 03:50:17;;;;;;;15.43;10.50;;;;;;;-2.71;100.00;95940.03;5063913;28;20224;-73
2022/01/24 03:53:04;;;;;;;14.87;10.70;;;;;;;-3.04;100.00;95940.44;5056875;28;20304;-72
2022/01/24 03:55:50;;;;;;;15.90;10.23;;;;;;;-3.21;100.00;95943.44;5072417;28;20197;-73
2022/01/24 03:58:36;;;;;;;13.47;9.47;;;;;;;-3.30;100.00;95937.47;5077656;28;20217;-73
2022/01/24 04:01:22;;;;;;;15.50;10.40;;;;;;;-3.30;100.00;95937.47;5059039;28;20198;-73
2022/01/24 04:04:07;;;;;;;12.97;9.57;;;;;;;-3.10;100.00;95930.31;5062542;28;20309;-73
2022/01/24 04:06:54;;;;;;;15.17;9.80;;;;;;;-3.15;100.00;95935.91;5064302;28;20197;-73
2022/01/24 04:09:41;;;;;;;15.77;10.60;;;;;;;-3.12;100.00;95932.59;5065724;28;20220;-73
2022/01/24 04:12:27;;;;;;;16.77;11.03;;;;;;;-3.09;100.00;95937.22;5072352;28;20223;-73
2022/01/24 04:15:27;;;;;;;16.33;10.60;;;;;;;-3.08;100.00;95926.19;5068459;28;20220;-73
2022/01/24 04:24:09;;;;;;;14.40;10.13;;;;;;;-3.11;100.00;95924.22;5071902;28;20265;-73
2022/01/24 04:26:55;;;;;;;14.67;10.37;;;;;;;-3.04;100.00;95920.94;5073386;28;20746;-73
2022/01/24 04:29:42;;;;;;;16.00;10.30;;;;;;;-2.94;100.00;95907.84;5076750;28;20240;-73
2022/01/24 04:32:27;;;;;;;15.17;10.47;;;;;;;-2.99;100.00;95908.09;5080804;28;20204;-73
2022/01/24 04:35:14;;;;;;;12.03;9.07;;;;;;;-3.01;100.00;95906.88;5061911;28;20190;-73
2022/01/24 04:38:01;;;;;;;15.00;10.67;;;;;;;-2.92;100.00;95908.25;5050082;28;20198;-73
2022/01/24 04:40:47;;;;;;;18.47;12.50;;;;;;;-2.86;100.00;95914.91;5050131;28;20301;-73
2022/01/24 04:46:44;;;;;;;13.90;9.70;;;;;;;-2.91;100.00;95909.81;5068213;28;20190;-73
2022/01/24 04:55:15;;;;;;;17.80;11.63;;;;;;;-2.32;100.00;95914.94;5070657;28;20186;-73
2022/01/24 04:58:01;;;;;;;16.87;11.30;;;;;;;-2.10;100.00;95914.25;5073594;28;20734;-73
2022/01/24 05:00:47;;;;;;;15.63;10.93;;;;;;;-2.26;100.00;95900.19;5068867;28;20235;-73
2022/01/24 05:03:33;;;;;;;17.00;11.20;;;;;;;-2.42;100.00;95917.38;5068066;28;20663;-73
2022/01/24 05:06:19;;;;;;;15.37;10.47;;;;;;;-2.20;100.00;95919.38;5067872;28;20223;-73
2022/01/24 05:09:06;;;;;;;16.67;10.47;;;;;;;-2.20;100.00;95928.19;5059289;28;20322;-73
2022/01/24 05:11:58;;;;;;;14.97;10.60;;;;;;;-2.15;100.00;95921.78;5062347;28;20598;-73
2022/01/24 05:23:58;;;;;;;14.73;10.03;;;;;;;-1.77;100.00;95919.13;5076320;28;20197;-73
2022/01/24 05:26:44;;;;;;;15.40;10.30;;;;;;;-1.68;100.00;95931.16;5049780;28;20197;-73
2022/01/24 05:29:31;;;;;;;12.83;8.97;;;;;;;-1.80;100.00;95925.97;5054696;28;20224;-73
2022/01/24 05:32:16;;;;;;;13.97;9.67;;;;;;;-1.80;100.00;95931.31;5075529;28;20204;-73
2022/01/24 05:35:03;;;;;;;14.30;9.53;;;;;;;-1.78;100.00;95926.38;5057613;28;20221;-73
2022/01/24 05:37:49;;;;;;;15.13;10.30;;;;;;;-1.80;100.00;95920.59;5069312;28;20275;-73
2022/01/24 05:40:35;;;;;;;15.80;10.27;;;;;;;-1.88;100.00;95932.31;5082560;28;20185;-73
2022/01/24 05:43:21;;;;;;;16.77;10.13;;;;;;;-1.93;100.00;95937.94;5089970;28;20180;-73
2022/01/24 05:46:07;;;;;;;15.30;10.87;;;;;;;-1.85;100.00;95936.94;5081041;28;20209;-73
2022/01/24 05:48:54;;;;;;;14.67;10.10;;;;;;;-1.92;100.00;95944.06;5064701;28;20223;-71
2022/01/24 05:51:40;;;;;;;14.17;10.30;;;;;;;-1.82;100.00;95946.97;5058290;28;20194;-71
2022/01/24 05:54:26;;;;;;;15.13;10.60;;;;;;;-1.93;100.00;95937.94;5054627;28;20213;-74
2022/01/24 05:57:12;;;;;;;14.20;10.60;;;;;;;-1.84;100.00;95951.13;5067113;28;20209;-72
2022/01/24 05:59:58;;;;;;;15.03;10.70;;;;;;;-1.76;100.00;95952.81;5065651;28;20264;-71
2022/01/24 06:02:44;;;;;;;15.30;10.13;;;;;;;-1.68;100.00;95939.19;5071432;28;20212;-72
2022/01/24 06:05:30;;;;;;;17.27;11.30;;;;;;;-1.81;100.00;95940.47;5058907;28;20201;-71
2022/01/24 06:08:16;;;;;;;14.30;10.73;;;;;;;-1.89;100.00;95946.03;5038172;28;20213;-71
2022/01/24 06:11:02;;;;;;;13.33;9.63;;;;;;;-1.93;100.00;95955.88;5084861;28;20673;-71
2022/01/24 06:13:50;;;;;;;14.53;10.20;;;;;;;-2.07;100.00;95942.25;5090207;28;20217;-71
2022/01/24 06:16:37;;;;;;;15.97;10.57;;;;;;;-2.26;100.00;95956.38;5066222;28;20660;-71
2022/01/24 06:19:23;;;;;;;15.30;10.40;;;;;;;-2.12;100.00;95953.22;5056002;28;20221;-72
2022/01/24 06:22:09;;;;;;;13.43;9.30;;;;;;;-2.18;100.00;95939.34;5067092;28;20209;-71
2022/01/24 06:24:55;;;;;;;13.03;9.63;;;;;;;-2.16;100.00;95945.13;5047756;28;20190;-73
2022/01/24 06:27:41;;;;;;;15.40;10.50;;;;;;;-2.13;100.00;95947.09;5065821;28;20685;-71
2022/01/24 06:30:27;;;;;;;15.47;10.57;;;;;;;-2.03;100.00;95951.09;5067215;28;20210;-72
2022/01/24 06:33:13;;;;;;;12.73;10.40;;;;;;;-2.09;100.00;95947.16;5065510;28;20221;-71
2022/01/24 06:35:59;;;;;;;15.47;11.23;;;;;;;-2.15;100.00;95941.31;5057556;28;20200;-71
2022/01/24 06:38:45;;;;;;;15.33;10.83;;;;;;;-2.22;100.00;95946.50;5069013;28;20237;-71
2022/01/24 06:41:34;;;;;;;15.57;11.33;;;;;;;-2.10;100.00;95957.09;5070879;28;20264;-71
2022/01/24 06:44:20;;;;;;;13.97;10.03;;;;;;;-2.09;100.00;95957.88;5077329;28;20185;-71
2022/01/24 06:47:07;;;;;;;16.30;11.20;;;;;;;-1.98;100.00;95964.19;5061772;28;20201;-72
2022/01/24 06:49:52;;;;;;;15.67;10.90;;;;;;;-2.10;100.00;95978.50;5060252;28;20221;-71
2022/01/24 06:52:38;;;;;;;16.13;10.90;;;;;;;-1.96;100.00;95972.66;5060501;28;20205;-71
2022/01/24 06:55:24;;;;;;;17.83;11.60;;;;;;;-2.00;100.00;95971.84;5090745;28;20181;-71
2022/01/24 06:58:10;;;;;;;15.07;10.43;;;;;;;-2.13;100.00;95973.06;5066085;28;20546;-72
2022/01/24 07:00:56;;;;;;;16.13;10.70;;;;;;;-2.16;100.00;95987.94;5057906;28;20197;-71
2022/01/24 07:03:42;;;;;;;13.57;9.97;;;;;;;-2.13;100.00;95973.84;5063245;28;20273;-72
2022/01/24 07:06:28;;;;;;;14.47;11.30;;;;;;;-1.96;100.00;95976.13;5071061;28;20197;-71
2022/01/24 07:09:14;;;;;;;18.17;11.00;;;;;;;-1.83;100.00;95976.78;5077214;28;20216;-71
2022/01/24 07:12:00;;;;;;;16.53;11.50;;;;;;;-1.66;100.00;95987.03;5054815;28;20206;-71
2022/01/24 07:14:46;;;;;;;16.90;11.73;;;;;;;-1.65;100.00;96000.09;5050361;28;20663;-72
2022/01/24 07:17:56;;;;;;;16.70;11.37;;;;;;;-1.57;100.00;95980.38;5085637;28;20322;-71
2022/01/24 07:20:37;;;;;;;14.67;11.27;;;;;;;-1.39;100.00;95994.09;5083204;28;20217;-71
2022/01/24 07:23:24;;;;;;;18.97;11.90;;;;;;;-1.52;100.00;95995.38;5093131;28;20660;-72
2022/01/24 07:26:10;;;;;;;21.80;13.10;;;;;;;-1.49;100.00;95981.25;5079643;28;20584;-71
2022/01/24 07:28:56;;;;;;;15.17;12.10;;;;;;;-1.44;100.00;95994.38;5075339;28;20304;-71
2022/01/24 07:31:42;;;;;;;16.80;11.67;;;;;;;-1.46;100.00;95991.28;5053320;28;20636;-71
2022/01/24 07:34:28;;;;;;;19.40;12.93;;;;;;;-1.50;100.00;96044.00;5060626;28;20229;-71
2022/01/24 07:37:14;;;;;;;19.23;11.80;;;;;;;-1.43;100.00;95999.41;5080712;28;20228;-72
2022/01/24 07:40:00;;;;;;;16.80;11.93;;;;;;;-1.42;100.00;96002.84;5071739;28;20214;-71
2022/01/24 07:45:40;;;;;;;18.10;11.20;;;;;;;-1.33;100.00;96003.41;5079554;28;20190;-72
2022/01/24 07:48:26;;;;;;;16.23;12.07;;;;;;;-1.28;100.00;95992.41;5076844;28;20185;-72
2022/01/24 07:51:11;;;;;;;14.70;11.47;;;;;;;-1.25;100.00;95997.81;5080952;28;20194;-72
2022/01/24 07:53:57;;;;;;;17.77;11.53;;;;;;;-1.15;100.00;95999.13;5052506;28;20218;-72
2022/01/24 07:56:43;;;;;;;15.50;11.47;;;;;;;-1.20;100.00;95996.00;5025574;28;20634;-71
2022/01/24 07:59:29;;;;;;;17.83;11.57;;;;;;;-1.11;100.00;96010.72;5064880;28;20217;-72
2022/01/24 08:02:15;;;;;;;16.90;11.93;;;;;;;-1.06;100.00;96018.47;5072256;28;20272;-72
2022/01/24 08:05:01;;;;;;;16.87;11.70;;;;;;;-1.04;100.00;96018.09;5072220;28;20196;-72
2022/01/24 08:07:47;;;;;;;18.10;11.40;;;;;;;-0.97;100.00;96019.03;5079776;28;20256;-72
2022/01/24 08:10:34;;;;;;;13.23;10.37;;;;;;;-0.91;100.00;96024.84;5078282;28;20206;-72
2022/01/24 08:13:20;;;;;;;15.03;10.33;;;;;;;-0.82;100.00;96025.41;5062605;28;20206;-72
2022/01/24 08:16:06;;;;;;;15.07;11.10;;;;;;;-0.72;100.00;96022.13;5071615;28;20193;-72
2022/01/24 08:18:50;;;;;;;12.80;10.23;;;;;;;-0.73;100.00;96023.28;5074340;28;20261;-72
2022/01/24 08:21:16;;;;;;;13.13;10.13;;;;;;;-0.73;100.00;96028.63;5053565;28;20200;-71
2022/01/24 08:23:42;;;;;;;13.23;10.93;;;;;;;-0.74;100.00;96022.47;5073359;28;20189;-71
2022/01/24 08:26:08;;;;;;;13.97;10.70;;;;;;;-0.70;100.00;96017.97;5080898;28;20193;-71
2022/01/24 08:28:35;;;;;;;13.90;10.60;;;;;;;-0.72;100.00;96016.75;5057086;28;20217;-71
2022/01/24 08:31:19;;;;;;;13.73;10.67;;;;;;;-0.70;100.00;96017.97;5049377;28;20257;-71
2022/01/24 08:34:05;;;;;;;18.47;11.93;;;;;;;-0.58;100.00;96028.53;5053644;28;20209;-71
2022/01/24 08:36:51;;;;;;;16.07;10.60;;;;;;;-0.59;100.00;96016.22;5075508;28;20686;-71
2022/01/24 08:39:38;;;;;;;15.73;10.37;;;;;;;-0.49;100.00;96018.31;5093439;28;20216;-71
2022/01/24 08:48:21;;;;;;;14.80;10.13;;;;;;;-0.22;100.00;96027.19;5080263;28;20202;-71
2022/01/24 08:51:07;;;;;;;12.27;9.50;;;;;;;-0.13;100.00;96028.47;5079360;28;20197;-71
2022/01/24 08:53:53;;;;;;;12.57;9.63;;;;;;;-0.04;100.00;96034.38;5055072;28;20224;-71
2022/01/24 08:56:39;;;;;;;14.40;10.23;;;;;;;-0.09;100.00;96021.25;5056866;28;20666;-71
2022/01/24 08:59:25;;;;;;;14.53;9.70;;;;;;;0.10;100.00;96033.78;5080774;28;20647;-71
2022/01/24 09:02:12;;;;;;;14.30;10.17;;;;;;;0.18;100.00;96029.28;5056441;28;20347;-71
2022/01/24 09:04:58;;;;;;;14.93;10.20;;;;;;;0.37;100.00;96032.63;5055853;28;20214;-71
2022/01/24 09:07:44;;;;;;;12.63;9.80;;;;;;;0.38;100.00;96036.84;5080372;28;20198;-71
2022/01/24 09:10:32;;;;;;;13.67;10.00;;;;;;;0.54;100.00;96042.84;5077862;28;20229;-71
2022/01/24 09:13:19;;;;;;;13.13;9.93;;;;;;;0.52;100.00;96044.31;5046610;28;20213;-71
2022/01/24 09:16:05;;;;;;;12.30;9.73;;;;;;;0.74;100.00;96038.06;5071187;28;20548;-71
2022/01/24 09:18:52;;;;;;;13.47;10.17;;;;;;;0.77;100.00;96040.03;5073611;28;20263;-71
2022/01/24 09:21:38;;;;;;;11.97;9.87;;;;;;;0.91;100.00;96040.19;5071978;28;20281;-71
2022/01/24 09:24:24;;;;;;;15.40;10.00;;;;;;;0.85;100.00;96034.38;5071635;28;20322;-71
2022/01/24 09:27:10;;;;;;;17.20;10.27;;;;;;;1.04;100.00;96041.50;5054958;28;20634;-71
2022/01/24 09:29:57;;;;;;;13.47;9.87;;;;;;;1.09;100.00;96051.91;5059319;28;20717;-71
2022/01/24 09:32:43;;;;;;;12.80;9.73;;;;;;;1.00;100.00;96043.38;5066970;28;20206;-71
2022/01/24 09:35:29;;;;;;;12.40;9.63;;;;;;;1.01;100.00;96042.22;5070288;28;20201;-71
2022/01/24 09:38:16;;;;;;;12.77;9.40;;;;;;;0.93;100.00;96033.28;5083304;28;20193;-71
2022/01/24 09:41:04;;;;;;;12.10;9.23;;;;;;;1.08;100.00;96045.78;5084605;28;20202;-71
2022/01/24 09:43:50;;;;;;;14.03;9.80;;;;;;;1.04;100.00;96041.50;5070008;28;20273;-71
2022/01/24 09:46:37;;;;;;;13.27;10.27;;;;;;;1.34;100.00;96049.50;5064635;28;20193;-71
2022/01/24 09:49:23;;;;;;;11.63;9.27;;;;;;;1.24;100.00;96050.91;5056173;28;20216;-72
2022/01/24 09:52:09;;;;;;;13.47;8.87;;;;;;;1.29;100.00;96072.13;5083539;28;20658;-72
2022/01/24 09:54:55;;;;;;;18.50;11.27;;;;;;;1.49;100.00;96048.47;5063137;28;20686;-72
2022/01/24 09:57:42;;;;;;;12.23;9.10;;;;;;;1.47;100.00;96064.22;5088364;28;20193;-72
2022/01/24 10:00:29;;;;;;;12.37;9.80;;;;;;;1.66;100.00;96064.81;5088362;28;20229;-72
2022/01/24 10:03:15;;;;;;;13.60;9.63;;;;;;;1.64;100.00;96055.53;5067746;28;20750;-72
2022/01/24 10:06:01;;;;;;;11.43;9.03;;;;;;;1.78;100.00;96064.50;5070354;28;20592;-72
2022/01/24 10:08:48;;;;;;;12.23;9.40;;;;;;;1.80;100.00;96064.16;5058838;28;20299;-72
2022/01/24 10:11:34;;;;;;;11.90;9.40;;;;;;;1.73;100.00;96067.53;5056386;28;20584;-72
2022/01/24 10:17:42;;;;;;;14.47;10.80;;;;;;;1.78;100.00;96055.69;5077239;28;20269;-72
2022/01/24 10:20:28;;;;;;;12.23;9.30;;;;;;;1.77;100.00;96054.88;5072205;28;20308;-72
2022/01/24 10:23:16;;;;;;;12.20;9.33;;;;;;;1.88;100.00;96050.38;5072948;28;20221;-72
2022/01/24 10:26:05;;;;;;;12.07;8.77;;;;;;;1.94;100.00;96110.03;5057685;28;20191;-72
2022/01/24 10:28:51;;;;;;;14.20;9.43;;;;;;;1.96;100.00;96051.19;5050214;28;20685;-72
2022/01/24 10:31:46;;;;;;;13.50;9.20;;;;;;;2.19;100.00;96055.22;5085543;28;20685;-72
2022/01/24 10:34:36;;;;;;;13.03;8.77;;;;;;;1.93;100.00;96060.81;5070867;28;20296;-72
2022/01/24 10:37:24;;;;;;;11.73;8.67;;;;;;;1.85;100.00;96053.78;5077501;28;20193;-71
2022/01/24 10:40:19;;;;;;;10.87;8.63;;;;;;;1.86;100.00;96054.56;5074671;28;20206;-71
2022/01/24 10:43:23;;;;;;;10.63;7.80;;;;;;;1.85;100.00;96061.88;5071074;28;20181;-72
2022/01/24 10:46:10;;;;;;;11.77;8.57;;;;;;;2.21;100.00;96054.81;5075337;28;20193;-71
2022/01/24 10:49:03;;;;;;;9.10;7.37;;;;;;;2.57;100.00;96053.91;5069340;28;20209;-71
2022/01/24 10:51:49;;;;;;;9.03;7.63;;;;;;;2.27;100.00;96047.94;5075677;28;20202;-72
2022/01/24 10:54:35;;;;;;;12.20;8.40;;;;;;;3.09;100.00;96047.94;5074561;28;20698;-72
2022/01/24 10:57:26;;;;;;;9.30;7.57;;;;;;;3.56;100.00;96046.91;5066159;28;20197;-73
2022/01/24 11:00:19;;;;;;;14.47;8.73;;;;;;;3.52;100.00;96043.44;5048891;28;20223;-72
2022/01/24 11:03:06;;;;;;;9.53;7.10;;;;;;;3.17;100.00;96040.66;5081703;28;20193;-73
2022/01/24 11:05:53;;;;;;;9.47;7.63;;;;;;;2.63;100.00;96038.13;5051783;28;20190;-72
2022/01/24 11:08:39;;;;;;;10.80;8.70;;;;;;;2.23;100.00;96039.84;5058724;28;20857;-73
2022/01/24 11:11:25;;;;;;;9.40;7.97;;;;;;;2.52;100.00;96030.00;5086998;28;20185;-72
2022/01/24 11:14:15;;;;;;;15.27;10.20;;;;;;;2.62;100.00;96033.88;5070420;28;20222;-73
2022/01/24 11:17:03;;;;;;;13.87;8.43;;;;;;;2.93;100.00;96030.56;5070283;28;20221;-72
2022/01/24 11:19:56;;;;;;;11.50;7.97;;;;;;;2.89;100.00;96035.94;5070909;28;20231;-73
2022/01/24 11:22:46;;;;;;;11.90;8.47;;;;;;;3.00;100.00;96030.59;5048052;28;20588;-72
2022/01/24 11:25:43;;;;;;;10.60;8.33;;;;;;;2.57;100.00;96026.94;5076041;28;20606;-73
2022/01/24 11:28:29;;;;;;;10.13;8.07;;;;;;;2.66;100.00;96024.69;5076114;28;20278;-73
2022/01/24 11:31:27;;;;;;;11.57;8.23;;;;;;;3.20;100.00;96023.69;5077583;28;20213;-72
2022/01/24 11:34:20;;;;;;;11.10;8.53;;;;;;;2.64;100.00;96021.56;5059311;28;20318;-72
2022/01/24 11:37:07;;;;;;;9.80;7.90;;;;;;;2.48;100.00;96013.78;5059148;28;20193;-72
2022/01/24 11:39:54;;;;;;;12.07;8.23;;;;;;;2.73;100.00;96018.53;5075222;28;21018;-73
2022/01/24 11:42:43;;;;;;;10.37;8.27;;;;;;;3.02;100.00;96020.94;5069798;28;20194;-73
2022/01/24 11:45:56;;;;;;;10.80;7.77;;;;;;;3.44;100.00;96021.06;5068283;28;20201;-72
2022/01/24 11:48:42;;;;;;;10.13;7.23;;;;;;;2.88;100.00;96020.13;5076895;28;20217;-72
2022/01/24 11:51:33;;;;;;;9.37;7.40;;;;;;;2.91;100.00;96020.16;5064494;28;20200;-72
2022/01/24 11:54:32;;;;;;;12.57;8.53;;;;;;;3.33;100.00;96016.78;5090268;28;20662;-73
2022/01/24 11:57:23;;;;;;;10.03;8.50;;;;;;;2.92;100.00;96012.84;5085918;28;20186;-72
2022/01/24 12:00:08;;;;;;;10.77;7.93;;;;;;;3.38;100.00;96016.41;5070346;28;20208;-72
2022/01/24 12:02:57;;;;;;;10.53;7.03;;;;;;;3.47;100.00;96014.88;5082078;28;20266;-72
2022/01/24 12:05:48;;;;;;;12.27;8.07;;;;;;;3.29;100.00;96000.56;5073008;28;20190;-72
2022/01/24 12:08:42;;;;;;;10.07;7.23;;;;;;;2.95;100.00;96003.97;5074238;28;20197;-72
2022/01/24 12:11:33;;;;;;;7.73;6.93;;;;;;;3.28;100.00;95996.34;5047954;28;20620;-72
2022/01/24 12:14:34;;;;;;;10.83;7.57;;;;;;;3.61;100.00;96006.03;5037328;28;20302;-72
2022/01/24 12:17:45;;;;;;;9.17;7.43;;;;;;;3.59;100.00;96005.63;5047808;28;20197;-72
2022/01/24 12:20:31;;;;;;;8.77;7.07;;;;;;;3.49;100.00;96004.47;5082541;28;20209;-73
2022/01/24 12:23:21;;;;;;;9.63;8.27;;;;;;;3.60;100.00;95997.13;5091177;28;20234;-72
2022/01/24 12:26:09;;;;;;;8.97;6.90;;;;;;;3.51;100.00;95998.69;5091263;28;20193;-72
2022/01/24 12:29:05;;;;;;;9.20;7.07;;;;;;;3.17;100.00;96005.56;5045135;28;20222;-72
2022/01/24 12:31:58;;;;;;;8.90;7.30;;;;;;;3.13;100.00;95983.97;5057955;28;20200;-72
2022/01/24 12:34:44;;;;;;;9.10;7.23;;;;;;;3.31;100.00;95992.88;5050815;28;20241;-72
2022/01/24 12:37:32;;;;;;;8.70;6.77;;;;;;;3.12;100.00;95995.16;5064758;28;20190;-72
2022/01/24 12:40:27;;;;;;;9.67;7.23;;;;;;;2.74;100.00;95983.09;5066370;28;20212;-72
2022/01/24 12:43:28;;;;;;;9.83;7.60;;;;;;;2.78;100.00;95989.28;5073636;28;20200;-73
2022/01/24 12:46:18;;;;;;;8.63;6.70;;;;;;;2.75;100.00;95987.31;5073396;28;20194;-72
2022/01/24 12:49:07;;;;;;;11.53;6.90;;;;;;;2.92;100.00;95983.91;5058478;28;20291;-72
2022/01/24 12:51:53;;;;;;;8.80;7.03;;;;;;;3.02;100.00;95980.47;5078996;28;20353;-72
2022/01/24 12:54:44;;;;;;;7.83;6.90;;;;;;;3.24;100.00;95989.41;5055444;28;20277;-72
2022/01/24 12:57:37;;;;;;;8.93;7.00;;;;;;;3.22;100.00;95986.31;5074301;28;20197;-72
2022/01/24 13:00:23;;;;;;;9.30;6.73;;;;;;;3.12;100.00;95974.31;5074532;28;20206;-72
2022/01/24 13:03:09;;;;;;;9.37;7.27;;;;;;;3.26;100.00;95982.44;5091392;28;20192;-72
2022/01/24 13:05:54;;;;;;;8.83;7.10;;;;;;;3.28;100.00;95976.66;5091567;28;20535;-72
2022/01/24 13:09:02;;;;;;;10.50;7.23;;;;;;;2.93;100.00;95969.28;5050957;28;20296;-72
2022/01/24 13:11:49;;;;;;;8.20;6.80;;;;;;;2.77;100.00;95966.13;5079595;28;20198;-72
2022/01/24 13:14:53;;;;;;;12.43;7.13;;;;;;;2.88;100.00;95963.47;5071154;28;20217;-72
2022/01/24 13:21:08;;;;;;;9.80;7.17;;;;;;;3.20;100.00;95967.78;5074532;28;20202;-72
2022/01/24 13:24:01;;;;;;;8.50;6.70;;;;;;;3.16;100.00;95971.63;5072541;28;20239;-72
2022/01/24 13:26:47;;;;;;;7.77;6.27;;;;;;;3.10;100.00;95963.16;5053219;28;20616;-72
2022/01/24 13:29:38;;;;;;;8.00;6.17;;;;;;;3.21;100.00;95957.75;5041921;28;20221;-71
2022/01/24 13:33:01;;;;;;;7.50;6.63;;;;;;;3.15;100.00;95954.69;5052378;28;20602;-72
2022/01/24 13:35:49;;;;;;;8.97;6.23;;;;;;;3.10;100.00;95955.06;4993388;28;20193;-72
2022/01/24 13:38:41;;;;;;;7.40;5.70;;;;;;;3.16;100.00;95952.72;5079582;28;20209;-72
2022/01/24 13:41:28;;;;;;;5.80;4.90;;;;;;;3.14;100.00;95957.75;5072535;28;20588;-72
2022/01/24 13:44:13;;;;;;;6.57;5.33;;;;;;;3.06;100.00;95954.25;5069343;28;20189;-72
2022/01/24 13:47:09;;;;;;;7.70;5.80;;;;;;;2.98;100.00;95960.81;5083075;28;20192;-72
2022/01/24 13:49:55;;;;;;;6.97;5.60;;;;;;;2.92;100.00;95959.63;5071206;28;20221;-72
2022/01/24 13:52:48;;;;;;;6.73;5.93;;;;;;;3.05;100.00;95955.44;5071450;28;20771;-72
2022/01/24 13:55:40;;;;;;;5.87;5.27;;;;;;;3.00;100.00;95957.72;5064238;28;20698;-72
2022/01/24 13:58:27;;;;;;;6.37;5.43;;;;;;;2.83;100.00;95950.34;5071915;28;20667;-72
2022/01/24 14:01:13;;;;;;;7.10;5.33;;;;;;;2.74;100.00;95953.41;5052283;28;20292;-72
2022/01/24 14:04:09;;;;;;;5.63;5.03;;;;;;;2.75;100.00;95949.56;5065407;28;20231;-72
2022/01/24 14:07:01;;;;;;;7.10;5.30;;;;;;;2.55;100.00;95947.56;5070610;28;20201;-72
2022/01/24 14:09:53;;;;;;;5.67;4.93;;;;;;;2.65;100.00;95953.00;5068946;28;20213;-72
2022/01/24 14:12:47;;;;;;;6.20;5.60;;;;;;;2.68;100.00;95954.94;5081309;28;20619;-72
2022/01/24 14:18:28;;;;;;;7.37;5.67;;;;;;;2.84;100.00;95949.19;5065216;28;20206;-72
2022/01/24 14:21:14;;;;;;;6.43;5.40;;;;;;;2.81;100.00;95948.06;5074154;28;20201;-72
2022/01/24 14:24:02;;;;;;;8.37;6.07;;;;;;;2.65;100.00;95954.94;5048364;28;20182;-72
2022/01/24 14:26:48;;;;;;;8.30;5.83;;;;;;;2.69;100.00;95951.09;5070658;28;20272;-72
2022/01/24 14:29:38;;;;;;;7.67;6.13;;;;;;;2.75;100.00;95952.25;5038576;28;20217;-72
2022/01/24 14:32:24;;;;;;;9.60;5.73;;;;;;;2.66;100.00;95951.84;5067114;28;20280;-72
2022/01/24 14:35:11;;;;;;;8.43;5.90;;;;;;;2.69;100.00;95945.69;5057619;28;20597;-72
2022/01/24 14:37:59;;;;;;;6.67;5.70;;;;;;;2.69;100.00;95940.31;5051374;28;20200;-72
2022/01/24 14:40:51;;;;;;;8.50;6.07;;;;;;;2.69;100.00;95947.63;5082368;28;20196;-72
2022/01/24 14:46:44;;;;;;;6.03;4.97;;;;;;;2.59;100.00;95948.34;5062963;28;20306;-72
2022/01/24 14:49:33;;;;;;;6.67;5.87;;;;;;;2.56;100.00;95946.44;5054356;28;20296;-72
2022/01/24 14:52:22;;;;;;;7.27;5.73;;;;;;;2.53;100.00;95949.88;5071157;28;20681;-72
2022/01/24 14:55:08;;;;;;;9.80;6.47;;;;;;;2.48;100.00;95951.78;5052968;28;20205;-72
2022/01/24 14:57:54;;;;;;;6.63;5.80;;;;;;;2.42;100.00;95953.31;5043902;28;20611;-73
2022/01/24 15:00:40;;;;;;;8.37;6.00;;;;;;;2.43;100.00;95952.16;5063016;28;20682;-72